sensor_id;sensor_type;location;lat;lon;timestamp;pressure;altitude;pressure_sealevel;temperature;humidity
40730;BME280;26418;50.070;8.436;2024-02-14T00:02:07;100335.06;;;5.95;93.99
40730;BME280;26418;50.070;8.436;2024-02-14T00:04:33;100340.44;;;5.95;94.43
40730;BME280;26418;50.070;8.436;2024-02-14T00:06:59;100337.19;;;5.93;94.25
40730;BME280;26418;50.070;8.436;2024-02-14T00:09:25;100333.41;;;5.89;94.70
40730;BME280;26418;50.070;8.436;2024-02-14T00:11:51;100320.72;;;5.79;94.83
40730;BME280;26418;50.070;8.436;2024-02-14T00:14:17;100341.44;;;5.89;95.44
40730;BME280;26418;50.070;8.436;2024-02-14T00:16:44;100337.41;;;5.86;95.93
40730;BME280;26418;50.070;8.436;2024-02-14T00:19:10;100337.13;;;5.82;96.38
40730;BME280;26418;50.070;8.436;2024-02-14T00:21:35;100337.38;;;5.81;97.06
40730;BME280;26418;50.070;8.436;2024-02-14T00:24:01;100337.13;;;5.82;97.21
40730;BME280;26418;50.070;8.436;2024-02-14T00:26:27;100338.19;;;5.81;97.46
40730;BME280;26418;50.070;8.436;2024-02-14T00:28:52;100326.66;;;5.81;97.57
40730;BME280;26418;50.070;8.436;2024-02-14T00:31:18;100322.91;;;5.82;97.78
40730;BME280;26418;50.070;8.436;2024-02-14T00:33:44;100311.06;;;5.78;97.80
40730;BME280;26418;50.070;8.436;2024-02-14T00:36:11;100307.03;;;5.75;97.87
40730;BME280;26418;50.070;8.436;2024-02-14T00:38:37;100325.31;;;5.78;98.09
40730;BME280;26418;50.070;8.436;2024-02-14T00:41:02;100332.78;;;5.76;98.49
40730;BME280;26418;50.070;8.436;2024-02-14T00:43:28;100320.16;;;5.77;99.02
40730;BME280;26418;50.070;8.436;2024-02-14T00:45:54;100318.53;;;5.76;99.32
40730;BME280;26418;50.070;8.436;2024-02-14T00:48:22;100319.09;;;5.78;99.98
40730;BME280;26418;50.070;8.436;2024-02-14T00:50:48;100318.84;;;5.79;100.00
40730;BME280;26418;50.070;8.436;2024-02-14T00:53:13;100313.78;;;5.83;100.00
40730;BME280;26418;50.070;8.436;2024-02-14T00:55:39;100312.69;;;5.79;100.00
40730;BME280;26418;50.070;8.436;2024-02-14T00:58:05;100305.94;;;5.76;100.00
40730;BME280;26418;50.070;8.436;2024-02-14T01:00:30;100296.56;;;5.79;100.00
40730;BME280;26418;50.070;8.436;2024-02-14T01:02:57;100298.94;;;5.70;100.00
40730;BME280;26418;50.070;8.436;2024-02-14T01:05:23;100306.22;;;5.75;100.00
40730;BME280;26418;50.070;8.436;2024-02-14T01:07:49;100308.34;;;5.73;100.00
40730;BME280;26418;50.070;8.436;2024-02-14T01:10:15;100300.25;;;5.67;100.00
40730;BME280;26418;50.070;8.436;2024-02-14T01:12:40;100305.09;;;5.71;100.00
40730;BME280;26418;50.070;8.436;2024-02-14T01:15:06;100290.81;;;5.60;100.00
40730;BME280;26418;50.070;8.436;2024-02-14T01:17:32;100302.94;;;5.67;100.00
40730;BME280;26418;50.070;8.436;2024-02-14T01:19:58;100294.84;;;5.62;100.00
40730;BME280;26418;50.070;8.436;2024-02-14T01:22:24;100306.16;;;5.64;100.00
40730;BME280;26418;50.070;8.436;2024-02-14T01:24:49;100296.75;;;5.62;100.00
40730;BME280;26418;50.070;8.436;2024-02-14T01:27:15;100296.75;;;5.62;100.00
40730;BME280;26418;50.070;8.436;2024-02-14T01:29:42;100292.66;;;5.59;100.00
40730;BME280;26418;50.070;8.436;2024-02-14T01:32:07;100307.16;;;5.58;100.00
40730;BME280;26418;50.070;8.436;2024-02-14T01:34:35;100285.09;;;5.51;100.00
40730;BME280;26418;50.070;8.436;2024-02-14T01:37:00;100294.53;;;5.54;100.00
40730;BME280;26418;50.070;8.436;2024-02-14T01:39:26;100294.22;;;5.50;100.00
40730;BME280;26418;50.070;8.436;2024-02-14T01:41:51;100291.53;;;5.50;100.00
40730;BME280;26418;50.070;8.436;2024-02-14T01:44:18;100296.09;;;5.49;100.00
40730;BME280;26418;50.070;8.436;2024-02-14T01:46:46;100289.88;;;5.44;100.00
40730;BME280;26418;50.070;8.436;2024-02-14T01:49:12;100297.16;;;5.48;100.00
40730;BME280;26418;50.070;8.436;2024-02-14T01:51:39;100285.63;;;5.48;100.00
40730;BME280;26418;50.070;8.436;2024-02-14T01:54:07;100293.97;;;5.51;100.00
40730;BME280;26418;50.070;8.436;2024-02-14T01:56:33;100276.75;;;5.47;100.00
40730;BME280;26418;50.070;8.436;2024-02-14T01:59:00;100278.66;;;5.47;100.00
40730;BME280;26418;50.070;8.436;2024-02-14T02:01:26;100279.75;;;5.51;100.00
40730;BME280;26418;50.070;8.436;2024-02-14T02:03:52;100274.91;;;5.48;100.00
40730;BME280;26418;50.070;8.436;2024-02-14T02:06:18;100276.00;;;5.52;100.00
40730;BME280;26418;50.070;8.436;2024-02-14T02:08:43;100280.56;;;5.51;100.00
40730;BME280;26418;50.070;8.436;2024-02-14T02:11:09;100274.91;;;5.48;100.00
40730;BME280;26418;50.070;8.436;2024-02-14T02:13:35;100253.09;;;5.39;100.00
40730;BME280;26418;50.070;8.436;2024-02-14T02:16:02;100271.66;;;5.46;100.00
40730;BME280;26418;50.070;8.436;2024-02-14T02:18:33;100266.56;;;5.44;100.00
40730;BME280;26418;50.070;8.436;2024-02-14T02:20:59;100257.13;;;5.37;100.00
40730;BME280;26418;50.070;8.436;2024-02-14T02:23:24;100257.13;;;5.42;100.00
40730;BME280;26418;50.070;8.436;2024-02-14T02:25:50;100260.09;;;5.40;100.00
40730;BME280;26418;50.070;8.436;2024-02-14T02:28:16;100262.78;;;5.40;100.00
40730;BME280;26418;50.070;8.436;2024-02-14T02:30:42;100261.72;;;5.41;100.00
40730;BME280;26418;50.070;8.436;2024-02-14T02:33:08;100254.44;;;5.37;100.00
40730;BME280;26418;50.070;8.436;2024-02-14T02:35:34;100260.91;;;5.41;100.00
40730;BME280;26418;50.070;8.436;2024-02-14T02:38:00;100263.88;;;5.44;100.00
40730;BME280;26418;50.070;8.436;2024-02-14T02:40:26;100268.44;;;5.44;100.00
40730;BME280;26418;50.070;8.436;2024-02-14T02:42:54;100270.63;;;5.52;100.00
40730;BME280;26418;50.070;8.436;2024-02-14T02:45:20;100267.16;;;5.51;100.00
40730;BME280;26418;50.070;8.436;2024-02-14T02:47:46;100269.34;;;5.60;100.00
40730;BME280;26418;50.070;8.436;2024-02-14T02:50:13;100272.53;;;5.57;100.00
40730;BME280;26418;50.070;8.436;2024-02-14T02:52:38;100273.38;;;5.57;100.00
40730;BME280;26418;50.070;8.436;2024-02-14T02:55:06;100272.28;;;5.58;100.00
40730;BME280;26418;50.070;8.436;2024-02-14T02:57:31;100265.81;;;5.54;100.00
40730;BME280;26418;50.070;8.436;2024-02-14T02:59:59;100279.03;;;5.61;100.00
40730;BME280;26418;50.070;8.436;2024-02-14T03:02:24;100268.78;;;5.53;100.00
40730;BME280;26418;50.070;8.436;2024-02-14T03:04:51;100277.97;;;5.62;100.00
40730;BME280;26418;50.070;8.436;2024-02-14T03:07:18;100263.44;;;5.58;100.00
40730;BME280;26418;50.070;8.436;2024-02-14T03:09:44;100271.25;;;5.64;100.00
40730;BME280;26418;50.070;8.436;2024-02-14T03:12:10;100264.84;;;5.65;100.00
40730;BME280;26418;50.070;8.436;2024-02-14T03:14:35;100270.19;;;5.65;100.00
40730;BME280;26418;50.070;8.436;2024-02-14T03:17:04;100266.97;;;5.63;100.00
40730;BME280;26418;50.070;8.436;2024-02-14T03:19:30;100267.50;;;5.65;100.00
40730;BME280;26418;50.070;8.436;2024-02-14T03:21:56;100271.28;;;5.70;100.00
40730;BME280;26418;50.070;8.436;2024-02-14T03:24:23;100263.78;;;5.66;100.00
40730;BME280;26418;50.070;8.436;2024-02-14T03:26:51;100260.25;;;5.66;100.00
40730;BME280;26418;50.070;8.436;2024-02-14T03:29:19;100271.81;;;5.66;100.00
40730;BME280;26418;50.070;8.436;2024-02-14T03:31:46;100269.91;;;5.62;100.00
40730;BME280;26418;50.070;8.436;2024-02-14T03:34:11;100285.22;;;5.66;100.00
40730;BME280;26418;50.070;8.436;2024-02-14T03:36:37;100271.75;;;5.61;100.00
40730;BME280;26418;50.070;8.436;2024-02-14T03:39:03;100269.63;;;5.63;100.00
40730;BME280;26418;50.070;8.436;2024-02-14T03:41:30;100277.97;;;5.67;100.00
40730;BME280;26418;50.070;8.436;2024-02-14T03:43:57;100283.63;;;5.65;100.00
40730;BME280;26418;50.070;8.436;2024-02-14T03:46:26;100265.03;;;5.54;100.00
40730;BME280;26418;50.070;8.436;2024-02-14T03:48:55;100278.78;;;5.67;100.00
40730;BME280;26418;50.070;8.436;2024-02-14T03:51:24;100271.81;;;5.66;100.00
40730;BME280;26418;50.070;8.436;2024-02-14T03:53:50;100279.63;;;5.73;100.00
40730;BME280;26418;50.070;8.436;2024-02-14T03:56:16;100281.25;;;5.74;100.00
40730;BME280;26418;50.070;8.436;2024-02-14T03:58:42;100280.44;;;5.74;100.00
40730;BME280;26418;50.070;8.436;2024-02-14T04:01:08;100291.19;;;5.74;100.00
40730;BME280;26418;50.070;8.436;2024-02-14T04:03:34;100299.75;;;5.76;100.00
40730;BME280;26418;50.070;8.436;2024-02-14T04:06:00;100299.22;;;5.74;100.00
40730;BME280;26418;50.070;8.436;2024-02-14T04:08:26;100285.22;;;5.66;100.00
40730;BME280;26418;50.070;8.436;2024-02-14T04:10:51;100299.47;;;5.72;100.00
40730;BME280;26418;50.070;8.436;2024-02-14T04:13:19;100296.50;;;5.69;100.00
40730;BME280;26418;50.070;8.436;2024-02-14T04:15:46;100306.72;;;5.72;100.00
40730;BME280;26418;50.070;8.436;2024-02-14T04:18:12;100307.78;;;5.71;100.00
40730;BME280;26418;50.070;8.436;2024-02-14T04:20:39;100293.56;;;5.70;100.00
40730;BME280;26418;50.070;8.436;2024-02-14T04:23:06;100305.09;;;5.71;100.00
40730;BME280;26418;50.070;8.436;2024-02-14T04:25:33;100295.41;;;5.64;100.00
40730;BME280;26418;50.070;8.436;2024-02-14T04:27:59;100303.50;;;5.70;100.00
40730;BME280;26418;50.070;8.436;2024-02-14T04:30:25;100298.66;;;5.66;100.00
40730;BME280;26418;50.070;8.436;2024-02-14T04:32:51;100315.84;;;5.71;100.00
40730;BME280;26418;50.070;8.436;2024-02-14T04:35:20;100315.34;;;5.74;100.00
40730;BME280;26418;50.070;8.436;2024-02-14T04:37:46;100310.50;;;5.76;100.00
40730;BME280;26418;50.070;8.436;2024-02-14T04:40:13;100281.91;;;5.54;100.00
40730;BME280;26418;50.070;8.436;2024-02-14T04:42:40;100301.34;;;5.72;100.00
40730;BME280;26418;50.070;8.436;2024-02-14T04:45:06;100308.91;;;5.75;100.00
40730;BME280;26418;50.070;8.436;2024-02-14T04:47:32;100318.53;;;5.76;100.00
40730;BME280;26418;50.070;8.436;2024-02-14T04:49:58;100314.28;;;5.75;100.00
40730;BME280;26418;50.070;8.436;2024-02-14T04:52:23;100300.53;;;5.71;100.00
40730;BME280;26418;50.070;8.436;2024-02-14T04:54:49;100300.53;;;5.71;100.00
40730;BME280;26418;50.070;8.436;2024-02-14T04:57:14;100299.53;;;5.77;100.00
40730;BME280;26418;50.070;8.436;2024-02-14T04:59:40;100304.63;;;5.79;100.00
40730;BME280;26418;50.070;8.436;2024-02-14T05:02:06;100284.69;;;5.70;100.00
40730;BME280;26418;50.070;8.436;2024-02-14T05:04:32;100302.41;;;5.71;100.00
40730;BME280;26418;50.070;8.436;2024-02-14T05:07:00;100298.69;;;5.72;100.00
40730;BME280;26418;50.070;8.436;2024-02-14T05:09:26;100303.50;;;5.70;100.00
40730;BME280;26418;50.070;8.436;2024-02-14T05:11:51;100286.78;;;5.57;100.00
40730;BME280;26418;50.070;8.436;2024-02-14T05:14:17;100281.44;;;5.62;100.00
40730;BME280;26418;50.070;8.436;2024-02-14T05:16:43;100276.34;;;5.61;100.00
40730;BME280;26418;50.070;8.436;2024-02-14T05:19:09;100249.75;;;5.59;100.00
40730;BME280;26418;50.070;8.436;2024-02-14T05:21:35;100279.25;;;5.54;100.00
40730;BME280;26418;50.070;8.436;2024-02-14T05:24:01;100265.78;;;5.49;100.00
40730;BME280;26418;50.070;8.436;2024-02-14T05:26:27;100285.09;;;5.51;100.00
40730;BME280;26418;50.070;8.436;2024-02-14T05:28:52;100296.66;;;5.51;100.00
40730;BME280;26418;50.070;8.436;2024-02-14T05:31:18;100291.28;;;5.51;100.00
40730;BME280;26418;50.070;8.436;2024-02-14T05:33:43;100293.97;;;5.51;100.00
40730;BME280;26418;50.070;8.436;2024-02-14T05:36:09;100289.69;;;5.50;100.00
40730;BME280;26418;50.070;8.436;2024-02-14T05:38:35;100302.31;;;5.55;100.00
40730;BME280;26418;50.070;8.436;2024-02-14T05:41:01;100300.72;;;5.59;100.00
40730;BME280;26418;50.070;8.436;2024-02-14T05:43:27;100296.19;;;5.60;100.00
40730;BME280;26418;50.070;8.436;2024-02-14T05:45:52;100300.50;;;5.61;100.00
40730;BME280;26418;50.070;8.436;2024-02-14T05:48:19;100295.88;;;5.56;100.00
40730;BME280;26418;50.070;8.436;2024-02-14T05:50:45;100297.28;;;5.64;100.00
40730;BME280;26418;50.070;8.436;2024-02-14T05:53:11;100294.34;;;5.65;100.00
40730;BME280;26418;50.070;8.436;2024-02-14T05:55:38;100298.34;;;5.63;100.00
40730;BME280;26418;50.070;8.436;2024-02-14T05:58:04;100293.81;;;5.69;100.00
40730;BME280;26418;50.070;8.436;2024-02-14T06:00:29;100305.66;;;5.73;100.00
40730;BME280;26418;50.070;8.436;2024-02-14T06:02:58;100293.88;;;5.74;100.00
40730;BME280;26418;50.070;8.436;2024-02-14T06:05:24;100306.22;;;5.75;100.00
40730;BME280;26418;50.070;8.436;2024-02-14T06:07:49;100307.81;;;5.76;100.00
40730;BME280;26418;50.070;8.436;2024-02-14T06:10:16;100298.19;;;5.80;100.00
40730;BME280;26418;50.070;8.436;2024-02-14T06:12:43;100318.59;;;5.81;100.00
40730;BME280;26418;50.070;8.436;2024-02-14T06:15:09;100316.72;;;5.81;100.00
40730;BME280;26418;50.070;8.436;2024-02-14T06:17:35;100319.69;;;5.85;100.00
40730;BME280;26418;50.070;8.436;2024-02-14T06:20:01;100314.84;;;5.82;100.00
40730;BME280;26418;50.070;8.436;2024-02-14T06:22:31;100309.19;;;5.78;100.00
40730;BME280;26418;50.070;8.436;2024-02-14T06:24:58;100322.06;;;5.81;100.00
40730;BME280;26418;50.070;8.436;2024-02-14T06:27:23;100335.56;;;5.87;100.00
40730;BME280;26418;50.070;8.436;2024-02-14T06:29:49;100333.41;;;5.89;100.00
40730;BME280;26418;50.070;8.436;2024-02-14T06:32:14;100332.34;;;5.90;100.00
40730;BME280;26418;50.070;8.436;2024-02-14T06:34:40;100338.53;;;5.90;100.00
40730;BME280;26418;50.070;8.436;2024-02-14T06:37:06;100335.56;;;5.87;100.00
40730;BME280;26418;50.070;8.436;2024-02-14T06:39:31;100341.50;;;5.94;100.00
40730;BME280;26418;50.070;8.436;2024-02-14T06:41:57;100332.88;;;5.87;100.00
40730;BME280;26418;50.070;8.436;2024-02-14T06:44:23;100347.66;;;5.94;100.00
40730;BME280;26418;50.070;8.436;2024-02-14T06:46:49;100345.25;;;5.93;100.00
40730;BME280;26418;50.070;8.436;2024-02-14T06:49:16;100347.16;;;5.97;100.00
40730;BME280;26418;50.070;8.436;2024-02-14T06:51:41;100336.13;;;5.94;100.00
40730;BME280;26418;50.070;8.436;2024-02-14T06:54:07;100352.84;;;6.01;100.00
40730;BME280;26418;50.070;8.436;2024-02-14T06:56:33;100366.00;;;6.03;100.00
40730;BME280;26418;50.070;8.436;2024-02-14T06:58:59;100351.47;;;5.98;100.00
40730;BME280;26418;50.070;8.436;2024-02-14T07:01:29;100373.25;;;6.02;100.00
40730;BME280;26418;50.070;8.436;2024-02-14T07:03:55;100363.59;;;6.01;100.00
40730;BME280;26418;50.070;8.436;2024-02-14T07:06:20;100364.38;;;6.02;100.00
40730;BME280;26418;50.070;8.436;2024-02-14T07:08:46;100352.53;;;5.97;100.00
40730;BME280;26418;50.070;8.436;2024-02-14T07:11:13;100365.50;;;6.06;100.00
40730;BME280;26418;50.070;8.436;2024-02-14T07:13:38;100361.47;;;6.08;100.00
40730;BME280;26418;50.070;8.436;2024-02-14T07:16:04;100365.53;;;6.11;100.00
40730;BME280;26418;50.070;8.436;2024-02-14T07:18:30;100357.47;;;6.11;100.00
40730;BME280;26418;50.070;8.436;2024-02-14T07:20:55;100355.63;;;6.17;100.00
40730;BME280;26418;50.070;8.436;2024-02-14T07:23:21;100362.09;;;6.21;100.00
40730;BME280;26418;50.070;8.436;2024-02-14T07:25:46;100366.16;;;6.28;100.00
40730;BME280;26418;50.070;8.436;2024-02-14T07:28:12;100362.69;;;6.33;100.00
40730;BME280;26418;50.070;8.436;2024-02-14T07:30:38;100374.28;;;6.39;100.00
40730;BME280;26418;50.070;8.436;2024-02-14T07:33:03;100378.03;;;6.43;100.00
40730;BME280;26418;50.070;8.436;2024-02-14T07:35:29;100366.78;;;6.46;100.00
40730;BME280;26418;50.070;8.436;2024-02-14T07:37:55;100371.09;;;6.47;100.00
40730;BME280;26418;50.070;8.436;2024-02-14T07:40:21;100370.88;;;6.54;100.00
40730;BME280;26418;50.070;8.436;2024-02-14T07:42:47;100373.56;;;6.54;100.00
40730;BME280;26418;50.070;8.436;2024-02-14T07:45:13;100377.03;;;6.54;100.00
40730;BME280;26418;50.070;8.436;2024-02-14T07:47:39;100370.31;;;6.52;100.00
40730;BME280;26418;50.070;8.436;2024-02-14T07:50:06;100374.34;;;6.49;100.00
40730;BME280;26418;50.070;8.436;2024-02-14T07:52:32;100365.22;;;6.50;100.00
40730;BME280;26418;50.070;8.436;2024-02-14T07:54:58;100371.94;;;6.58;100.00
40730;BME280;26418;50.070;8.436;2024-02-14T07:57:23;100380.00;;;6.58;100.00
40730;BME280;26418;50.070;8.436;2024-02-14T07:59:50;100377.88;;;6.65;100.00
40730;BME280;26418;50.070;8.436;2024-02-14T08:02:17;100375.75;;;6.67;100.00
40730;BME280;26418;50.070;8.436;2024-02-14T08:04:42;100386.78;;;6.71;100.00
40730;BME280;26418;50.070;8.436;2024-02-14T08:07:09;100378.72;;;6.71;100.00
40730;BME280;26418;50.070;8.436;2024-02-14T08:09:35;100390.31;;;6.76;100.00
40730;BME280;26418;50.070;8.436;2024-02-14T08:12:01;100384.09;;;6.76;100.00
40730;BME280;26418;50.070;8.436;2024-02-14T08:14:26;100389.25;;;6.83;100.00
40730;BME280;26418;50.070;8.436;2024-02-14T08:16:52;100383.63;;;6.89;100.00
40730;BME280;26418;50.070;8.436;2024-02-14T08:19:18;100384.75;;;6.99;100.00
40730;BME280;26418;50.070;8.436;2024-02-14T08:21:44;100377.78;;;7.18;100.00
40730;BME280;26418;50.070;8.436;2024-02-14T08:24:10;100375.13;;;7.54;100.00
40730;BME280;26418;50.070;8.436;2024-02-14T08:26:36;100370.84;;;7.84;100.00
40730;BME280;26418;50.070;8.436;2024-02-14T08:29:02;100377.75;;;8.22;100.00
40730;BME280;26418;50.070;8.436;2024-02-14T08:31:28;100365.34;;;8.52;100.00
40730;BME280;26418;50.070;8.436;2024-02-14T08:33:54;100369.22;;;8.85;100.00
40730;BME280;26418;50.070;8.436;2024-02-14T08:36:20;100365.53;;;9.16;100.00
40730;BME280;26418;50.070;8.436;2024-02-14T08:38:45;100367.84;;;9.33;100.00
40730;BME280;26418;50.070;8.436;2024-02-14T08:41:12;100379.06;;;9.50;99.99
40730;BME280;26418;50.070;8.436;2024-02-14T08:43:37;100377.66;;;9.58;97.28
40730;BME280;26418;50.070;8.436;2024-02-14T08:46:03;100381.38;;;9.67;95.65
40730;BME280;26418;50.070;8.436;2024-02-14T08:48:28;100368.78;;;9.52;92.82
40730;BME280;26418;50.070;8.436;2024-02-14T08:50:58;100378.34;;;9.39;91.97
40730;BME280;26418;50.070;8.436;2024-02-14T08:53:24;100382.19;;;9.28;94.60
40730;BME280;26418;50.070;8.436;2024-02-14T08:55:49;100382.06;;;9.04;93.08
40730;BME280;26418;50.070;8.436;2024-02-14T08:58:15;100387.84;;;8.81;94.27
40730;BME280;26418;50.070;8.436;2024-02-14T09:00:40;100388.47;;;8.58;95.38
40730;BME280;26418;50.070;8.436;2024-02-14T09:03:06;100402.25;;;8.46;96.61
40730;BME280;26418;50.070;8.436;2024-02-14T09:05:31;100399.03;;;8.33;97.52
40730;BME280;26418;50.070;8.436;2024-02-14T09:07:57;100405.78;;;8.31;98.57
40730;BME280;26418;50.070;8.436;2024-02-14T09:10:23;100405.50;;;8.27;99.05
40730;BME280;26418;50.070;8.436;2024-02-14T09:12:49;100406.88;;;8.19;100.00
40730;BME280;26418;50.070;8.436;2024-02-14T09:15:14;100399.59;;;8.15;100.00
40730;BME280;26418;50.070;8.436;2024-02-14T09:17:40;100401.22;;;8.16;100.00
40730;BME280;26418;50.070;8.436;2024-02-14T09:20:08;100401.50;;;8.14;100.00
40730;BME280;26418;50.070;8.436;2024-02-14T09:22:37;100393.69;;;8.13;100.00
40730;BME280;26418;50.070;8.436;2024-02-14T09:25:04;100387.50;;;8.07;100.00
40730;BME280;26418;50.070;8.436;2024-02-14T09:27:30;100399.34;;;8.11;100.00
40730;BME280;26418;50.070;8.436;2024-02-14T09:29:56;100393.94;;;8.11;100.00
40730;BME280;26418;50.070;8.436;2024-02-14T09:32:21;100397.72;;;8.15;100.00
40730;BME280;26418;50.070;8.436;2024-02-14T09:34:47;100401.19;;;8.26;100.00
40730;BME280;26418;50.070;8.436;2024-02-14T09:37:13;100392.84;;;8.33;100.00
40730;BME280;26418;50.070;8.436;2024-02-14T09:39:39;100403.84;;;8.42;100.00
40730;BME280;26418;50.070;8.436;2024-02-14T09:42:09;100409.50;;;8.45;100.00
40730;BME280;26418;50.070;8.436;2024-02-14T09:44:36;100405.75;;;8.52;100.00
40730;BME280;26418;50.070;8.436;2024-02-14T09:47:05;100406.56;;;8.52;100.00
40730;BME280;26418;50.070;8.436;2024-02-14T09:49:32;100401.72;;;8.54;100.00
40730;BME280;26418;50.070;8.436;2024-02-14T09:51:58;100403.59;;;8.54;100.00
40730;BME280;26418;50.070;8.436;2024-02-14T09:54:28;100411.91;;;8.57;100.00
40730;BME280;26418;50.070;8.436;2024-02-14T09:56:57;100413.28;;;8.60;100.00
40730;BME280;26418;50.070;8.436;2024-02-14T09:59:23;100414.88;;;8.61;100.00
40730;BME280;26418;50.070;8.436;2024-02-14T10:01:49;100407.31;;;8.63;100.00
40730;BME280;26418;50.070;8.436;2024-02-14T10:04:17;100404.63;;;8.63;100.00
40730;BME280;26418;50.070;8.436;2024-02-14T10:06:44;100412.47;;;8.64;100.00
40730;BME280;26418;50.070;8.436;2024-02-14T10:09:10;100417.53;;;8.71;100.00
40730;BME280;26418;50.070;8.436;2024-02-14T10:11:37;100421.84;;;8.72;100.00
40730;BME280;26418;50.070;8.436;2024-02-14T10:14:04;100412.16;;;8.76;100.00
40730;BME280;26418;50.070;8.436;2024-02-14T10:16:35;100403.78;;;8.78;100.00
40730;BME280;26418;50.070;8.436;2024-02-14T10:19:01;100403.47;;;8.85;100.00
40730;BME280;26418;50.070;8.436;2024-02-14T10:21:26;100414.75;;;8.97;100.00
40730;BME280;26418;50.070;8.436;2024-02-14T10:23:53;100421.22;;;9.01;100.00
40730;BME280;26418;50.070;8.436;2024-02-14T10:26:22;100422.75;;;9.12;100.00
40730;BME280;26418;50.070;8.436;2024-02-14T10:28:48;100421.13;;;9.17;100.00
40730;BME280;26418;50.070;8.436;2024-02-14T10:31:15;100426.19;;;9.23;100.00
40730;BME280;26418;50.070;8.436;2024-02-14T10:33:41;100427.28;;;9.27;100.00
40730;BME280;26418;50.070;8.436;2024-02-14T10:36:07;100428.34;;;9.26;100.00
40730;BME280;26418;50.070;8.436;2024-02-14T10:38:34;100433.47;;;9.28;100.00
40730;BME280;26418;50.070;8.436;2024-02-14T10:41:01;100436.41;;;9.37;100.00
40730;BME280;26418;50.070;8.436;2024-02-14T10:43:27;100442.56;;;9.42;100.00
40730;BME280;26418;50.070;8.436;2024-02-14T10:45:59;100440.38;;;9.44;100.00
40730;BME280;26418;50.070;8.436;2024-02-14T10:48:28;100443.84;;;9.55;100.00
40730;BME280;26418;50.070;8.436;2024-02-14T10:50:59;100423.84;;;9.56;99.71
40730;BME280;26418;50.070;8.436;2024-02-14T10:53:29;100428.84;;;9.73;99.78
40730;BME280;26418;50.070;8.436;2024-02-14T10:55:59;100421.81;;;9.78;98.99
40730;BME280;26418;50.070;8.436;2024-02-14T10:58:28;100430.63;;;9.88;98.71
40730;BME280;26418;50.070;8.436;2024-02-14T11:00:55;100429.25;;;9.91;98.58
40730;BME280;26418;50.070;8.436;2024-02-14T11:03:21;100426.25;;;9.98;98.51
40730;BME280;26418;50.070;8.436;2024-02-14T11:05:48;100426.94;;;10.09;98.15
40730;BME280;26418;50.070;8.436;2024-02-14T11:08:21;100422.63;;;10.07;98.17
40730;BME280;26418;50.070;8.436;2024-02-14T11:10:55;100428.44;;;10.20;99.28
40730;BME280;26418;50.070;8.436;2024-02-14T11:13:29;100422.94;;;10.30;95.98
40730;BME280;26418;50.070;8.436;2024-02-14T11:16:01;100417.03;;;10.28;95.23
40730;BME280;26418;50.070;8.436;2024-02-14T11:18:28;100423.72;;;10.36;94.88
40730;BME280;26418;50.070;8.436;2024-02-14T11:21:04;100423.63;;;10.46;94.99
40730;BME280;26418;50.070;8.436;2024-02-14T11:23:31;100406.47;;;10.56;94.04
40730;BME280;26418;50.070;8.436;2024-02-14T11:26:05;100403.66;;;10.66;93.28
40730;BME280;26418;50.070;8.436;2024-02-14T11:28:37;100393.59;;;10.72;93.20
40730;BME280;26418;50.070;8.436;2024-02-14T11:31:07;100397.75;;;10.83;92.70
40730;BME280;26418;50.070;8.436;2024-02-14T11:33:34;100405.84;;;10.89;91.75
40730;BME280;26418;50.070;8.436;2024-02-14T11:36:07;100404.88;;;10.98;91.35
40730;BME280;26418;50.070;8.436;2024-02-14T11:38:36;100404.09;;;10.98;90.11
40730;BME280;26418;50.070;8.436;2024-02-14T11:41:02;100395.38;;;11.01;90.00
40730;BME280;26418;50.070;8.436;2024-02-14T11:43:29;100398.38;;;10.99;89.82
40730;BME280;26418;50.070;8.436;2024-02-14T11:45:54;100393.53;;;10.96;90.37
40730;BME280;26418;50.070;8.436;2024-02-14T11:48:21;100406.28;;;10.96;90.84
40730;BME280;26418;50.070;8.436;2024-02-14T11:50:47;100409.09;;;10.85;91.06
40730;BME280;26418;50.070;8.436;2024-02-14T11:53:14;100401.72;;;10.72;91.21
40730;BME280;26418;50.070;8.436;2024-02-14T11:55:42;100403.59;;;10.72;92.17
40730;BME280;26418;50.070;8.436;2024-02-14T11:58:11;100397.19;;;10.62;92.59
40730;BME280;26418;50.070;8.436;2024-02-14T12:00:38;100400.22;;;10.61;92.77
40730;BME280;26418;50.070;8.436;2024-02-14T12:03:12;100403.22;;;10.59;93.07
40730;BME280;26418;50.070;8.436;2024-02-14T12:05:38;100393.56;;;10.53;93.20
40730;BME280;26418;50.070;8.436;2024-02-14T12:08:07;100411.72;;;10.47;93.81
40730;BME280;26418;50.070;8.436;2024-02-14T12:10:34;100410.75;;;10.38;94.52
40730;BME280;26418;50.070;8.436;2024-02-14T12:13:12;100407.81;;;10.29;95.42
40730;BME280;26418;50.070;8.436;2024-02-14T12:15:42;100402.25;;;10.20;96.29
40730;BME280;26418;50.070;8.436;2024-02-14T12:18:09;100401.19;;;10.16;96.86
40730;BME280;26418;50.070;8.436;2024-02-14T12:20:35;100402.03;;;10.12;97.39
40730;BME280;26418;50.070;8.436;2024-02-14T12:23:02;100400.44;;;10.11;97.61
40730;BME280;26418;50.070;8.436;2024-02-14T12:25:28;100391.53;;;10.10;98.49
40730;BME280;26418;50.070;8.436;2024-02-14T12:27:56;100386.13;;;10.10;98.91
40730;BME280;26418;50.070;8.436;2024-02-14T12:30:22;100391.19;;;10.17;98.84
40730;BME280;26418;50.070;8.436;2024-02-14T12:33:00;100398.13;;;10.28;98.68
40730;BME280;26418;50.070;8.436;2024-02-14T12:35:34;100396.63;;;10.41;98.51
40730;BME280;26418;50.070;8.436;2024-02-14T12:38:05;100401.41;;;10.49;97.85
40730;BME280;26418;50.070;8.436;2024-02-14T12:40:35;100390.56;;;10.54;97.61
40730;BME280;26418;50.070;8.436;2024-02-14T12:43:01;100394.50;;;10.62;97.22
40730;BME280;26418;50.070;8.436;2024-02-14T12:45:26;100398.13;;;10.77;96.86
40730;BME280;26418;50.070;8.436;2024-02-14T12:47:52;100398.13;;;10.77;96.14